Allenspark, Colorado
Current Conditions -  °F | °C
As of 10:36 PM on Friday 24 Oct 2014 (Local Time) from KBDU Reporting Station
Clear Clear  
Wind Chill: 20°   Ceiling: Unl
Heat Index: 20°   Visibility: 10mi
Dew Point: -7°   Wind: 9mph
Humidity: 16%   Direction: 240°WSW
Pressure: 30.2"   Gusts: NA
Location:  40.19°N, 105.53°W
Report Text: KBDU 250436Z AUTO 24008KT 10SM CLR 20/M07 A3020 RMK AO2
Loading
Personal Weather Stations






























Interactive Weather Map
Tropical Storm Tracking
New forecast layout! Learn more

10-Day Weather Forecast

Advertisements
Track Severe Weather on mobile